Time;durP1;ratioP1;P1;durP2;ratioP2;P2;SDS_P1;SDS_P2;PMS_P1;PMS_P2;Temp;Humidity;BMP_temperature;BMP_pressure;BME280_temperature;BME280_humidity;BME280_pressure;Samples;Min_cycle;Max_cycle;Signal;HPM_P1;HPM_P2
2023/05/30 00:02:13;;;;;;;;;;;21.80;52.70;;;;;;5057965;28;19932;-74
2023/05/30 00:04:40;;;;;;;;;;;21.70;52.70;;;;;;5052905;28;19932;-74
2023/05/30 00:07:07;;;;;;;;;;;21.70;52.70;;;;;;5051967;28;20031;-75
2023/05/30 00:09:34;;;;;;;;;;;21.70;52.80;;;;;;5051718;28;19936;-75
2023/05/30 00:12:02;;;;;;;;;;;21.60;53.50;;;;;;5056301;28;20513;-76
2023/05/30 00:14:28;;;;;;;;;;;21.60;53.00;;;;;;5061017;28;19929;-76
2023/05/30 00:16:56;;;;;;;;;;;21.60;53.10;;;;;;5055418;28;20437;-75
2023/05/30 00:19:23;;;;;;;;;;;21.50;53.10;;;;;;5048888;28;19936;-74
2023/05/30 00:21:49;;;;;;;;;;;21.50;53.20;;;;;;5050851;28;19932;-74
2023/05/30 00:24:16;;;;;;;;;;;21.50;53.40;;;;;;5048760;28;19943;-76
2023/05/30 00:26:42;;;;;;;;;;;21.40;53.30;;;;;;5048848;28;19936;-73
2023/05/30 00:29:10;;;;;;;;;;;21.40;53.40;;;;;;5050793;28;19951;-75
2023/05/30 00:31:37;;;;;;;;;;;21.30;53.50;;;;;;5055581;28;19932;-74
2023/05/30 00:34:03;;;;;;;;;;;21.30;53.60;;;;;;5055985;28;20435;-75
2023/05/30 00:36:31;;;;;;;;;;;21.30;53.60;;;;;;5057433;28;19935;-75
2023/05/30 00:38:57;;;;;;;;;;;21.30;53.70;;;;;;5061117;28;20090;-75
2023/05/30 00:41:24;;;;;;;;;;;21.20;53.70;;;;;;5052516;28;19935;-75
2023/05/30 00:43:50;;;;;;;;;;;21.20;53.90;;;;;;5060062;28;19928;-75
2023/05/30 00:46:19;;;;;;;;;;;21.20;54.00;;;;;;5059240;28;19933;-75
2023/05/30 00:48:46;;;;;;;;;;;21.10;54.00;;;;;;5065369;28;19939;-75
2023/05/30 00:51:12;;;;;;;;;;;21.00;54.00;;;;;;5058766;28;20375;-74
2023/05/30 00:53:41;;;;;;;;;;;21.10;54.20;;;;;;5067294;28;19928;-75
2023/05/30 00:56:08;;;;;;;;;;;21.00;54.20;;;;;;5066079;28;20713;-75
2023/05/30 00:58:35;;;;;;;;;;;20.90;54.30;;;;;;5062902;28;20011;-75
2023/05/30 01:01:02;;;;;;;;;;;21.00;54.40;;;;;;5061745;28;19929;-76
2023/05/30 01:03:32;;;;;;;;;;;20.90;54.50;;;;;;5062938;28;20621;-76
2023/05/30 01:05:59;;;;;;;;;;;20.80;54.50;;;;;;5056846;28;20590;-73
2023/05/30 01:08:26;;;;;;;;;;;20.80;54.70;;;;;;5055385;28;20747;-76
2023/05/30 01:10:56;;;;;;;;;;;20.80;54.80;;;;;;5057424;28;19944;-75
2023/05/30 01:13:26;;;;;;;;;;;20.70;54.90;;;;;;5052628;28;20039;-75
2023/05/30 01:15:54;;;;;;;;;;;20.70;54.90;;;;;;5054588;28;19954;-75
2023/05/30 01:18:26;;;;;;;;;;;20.70;55.10;;;;;;5053665;28;19933;-76
2023/05/30 01:20:58;;;;;;;;;;;20.60;55.10;;;;;;5058620;28;19947;-75
2023/05/30 01:23:41;;;;;;;;;;;20.60;55.20;;;;;;5061636;28;19928;-76
2023/05/30 01:26:15;;;;;;;;;;;20.50;55.20;;;;;;5056556;28;19940;-74
2023/05/30 01:28:43;;;;;;;;;;;20.50;55.90;;;;;;5060554;28;19932;-75
2023/05/30 01:31:10;;;;;;;;;;;20.50;55.40;;;;;;5055186;28;20134;-76
2023/05/30 01:33:37;;;;;;;;;;;20.50;55.50;;;;;;5053935;28;19928;-75
2023/05/30 01:36:04;;;;;;;;;;;20.40;55.50;;;;;;5055355;28;19932;-74
2023/05/30 01:38:30;;;;;;;;;;;20.40;55.60;;;;;;5053938;28;20001;-76
2023/05/30 01:40:59;;;;;;;;;;;20.40;55.70;;;;;;5055264;28;19933;-75
2023/05/30 01:43:30;;;;;;;;;;;20.40;55.80;;;;;;5056312;28;19976;-76
2023/05/30 01:46:02;;;;;;;;;;;20.30;55.80;;;;;;5060595;28;20406;-76
2023/05/30 01:48:33;;;;;;;;;;;20.30;55.90;;;;;;5060186;28;19929;-76
2023/05/30 01:51:00;;;;;;;;;;;20.20;55.90;;;;;;5054772;28;19936;-76
2023/05/30 01:53:30;;;;;;;;;;;20.20;56.00;;;;;;5058834;28;19932;-76
2023/05/30 01:55:59;;;;;;;;;;;20.20;56.10;;;;;;5057474;28;20019;-76
2023/05/30 01:58:26;;;;;;;;;;;20.20;56.30;;;;;;5052602;28;19951;-75
2023/05/30 02:00:53;;;;;;;;;;;20.20;56.50;;;;;;5057267;28;20326;-75
2023/05/30 02:03:24;;;;;;;;;;;20.10;56.30;;;;;;5056963;28;19940;-75
2023/05/30 02:05:51;;;;;;;;;;;20.10;56.40;;;;;;5053365;28;19928;-75
2023/05/30 02:08:17;;;;;;;;;;;20.00;56.40;;;;;;5053678;28;19935;-75
2023/05/30 02:10:44;;;;;;;;;;;20.00;56.50;;;;;;5058255;28;19933;-75
2023/05/30 02:13:11;;;;;;;;;;;20.00;56.60;;;;;;5058253;28;19929;-75
2023/05/30 02:15:37;;;;;;;;;;;19.90;56.60;;;;;;5053583;28;19936;-74
2023/05/30 02:18:04;;;;;;;;;;;19.90;56.80;;;;;;5054086;28;19928;-76
2023/05/30 02:20:32;;;;;;;;;;;19.90;56.80;;;;;;5055821;28;19936;-75
2023/05/30 02:22:58;;;;;;;;;;;19.90;56.90;;;;;;5054631;28;19936;-75
2023/05/30 02:25:25;;;;;;;;;;;19.80;56.80;;;;;;5057971;28;19928;-75
2023/05/30 02:27:51;;;;;;;;;;;19.80;57.00;;;;;;5058401;28;19944;-76
2023/05/30 02:30:18;;;;;;;;;;;19.70;57.10;;;;;;5049641;28;19956;-74
2023/05/30 02:32:45;;;;;;;;;;;19.70;57.20;;;;;;5053160;28;19936;-74
2023/05/30 02:35:11;;;;;;;;;;;19.70;57.20;;;;;;5053915;28;19929;-75
2023/05/30 02:37:40;;;;;;;;;;;19.70;57.30;;;;;;5055859;28;19927;-75
2023/05/30 02:40:09;;;;;;;;;;;19.60;57.30;;;;;;5055830;28;20035;-74
2023/05/30 02:42:36;;;;;;;;;;;19.70;57.50;;;;;;5058008;28;19936;-74
2023/05/30 02:45:03;;;;;;;;;;;19.60;57.50;;;;;;5057296;28;19978;-75
2023/05/30 02:47:29;;;;;;;;;;;19.50;57.50;;;;;;5055940;28;19975;-76
2023/05/30 02:49:56;;;;;;;;;;;19.50;57.50;;;;;;5052026;28;19928;-75
2023/05/30 02:52:22;;;;;;;;;;;19.50;57.60;;;;;;5056393;28;19928;-76
2023/05/30 02:54:51;;;;;;;;;;;19.50;57.70;;;;;;5054097;28;19928;-75
2023/05/30 02:57:19;;;;;;;;;;;19.50;57.70;;;;;;5051917;28;19979;-74
2023/05/30 02:59:45;;;;;;;;;;;19.40;57.70;;;;;;5053216;28;19990;-75
2023/05/30 03:02:12;;;;;;;;;;;19.40;57.90;;;;;;5056108;28;19951;-74
2023/05/30 03:04:39;;;;;;;;;;;19.30;57.80;;;;;;5059951;28;20443;-76
2023/05/30 03:07:08;;;;;;;;;;;19.30;58.00;;;;;;5059743;28;19928;-76
2023/05/30 03:09:34;;;;;;;;;;;19.30;58.00;;;;;;5059297;28;19928;-76
2023/05/30 03:12:03;;;;;;;;;;;19.30;58.10;;;;;;5062117;28;19935;-76
2023/05/30 03:14:30;;;;;;;;;;;19.30;58.20;;;;;;5053765;28;19929;-76
2023/05/30 03:16:56;;;;;;;;;;;19.20;58.10;;;;;;5058067;28;19944;-76
2023/05/30 03:19:23;;;;;;;;;;;19.20;58.20;;;;;;5056277;28;20023;-76
2023/05/30 03:21:51;;;;;;;;;;;19.20;58.20;;;;;;5057544;28;19929;-76
2023/05/30 03:24:17;;;;;;;;;;;19.10;58.40;;;;;;5060374;28;19932;-74
2023/05/30 03:26:44;;;;;;;;;;;19.10;58.40;;;;;;5057188;28;19928;-76
2023/05/30 03:29:12;;;;;;;;;;;19.10;58.40;;;;;;5061138;28;19932;-76
2023/05/30 03:31:39;;;;;;;;;;;19.10;58.50;;;;;;5058641;28;19929;-76
2023/05/30 03:34:06;;;;;;;;;;;19.00;58.50;;;;;;5061162;28;19933;-75
2023/05/30 03:36:32;;;;;;;;;;;19.00;58.60;;;;;;5054084;28;19932;-75
2023/05/30 03:38:59;;;;;;;;;;;18.90;58.70;;;;;;5055332;28;19928;-76
2023/05/30 03:41:25;;;;;;;;;;;18.90;58.80;;;;;;5055001;28;20759;-76
2023/05/30 03:43:52;;;;;;;;;;;18.90;58.80;;;;;;5054547;28;20047;-75
2023/05/30 03:46:21;;;;;;;;;;;18.90;58.90;;;;;;5051762;28;19933;-75
2023/05/30 03:48:48;;;;;;;;;;;18.90;58.80;;;;;;5050352;28;19997;-75
2023/05/30 03:51:14;;;;;;;;;;;18.80;58.90;;;;;;5052024;28;19928;-75
2023/05/30 03:53:42;;;;;;;;;;;18.80;59.00;;;;;;5057127;28;19928;-76
2023/05/30 03:56:08;;;;;;;;;;;18.80;59.10;;;;;;5055479;28;20030;-76
2023/05/30 03:58:35;;;;;;;;;;;18.70;59.10;;;;;;5052966;28;19928;-75
2023/05/30 04:01:01;;;;;;;;;;;18.70;59.20;;;;;;5051073;28;20059;-75
2023/05/30 04:03:30;;;;;;;;;;;18.70;59.30;;;;;;5052686;28;19939;-76
2023/05/30 04:05:58;;;;;;;;;;;18.70;59.30;;;;;;5054393;28;19929;-73
2023/05/30 04:08:25;;;;;;;;;;;18.60;59.30;;;;;;5051639;28;19928;-76
2023/05/30 04:10:51;;;;;;;;;;;18.60;59.30;;;;;;5051531;28;19932;-74
2023/05/30 04:13:18;;;;;;;;;;;18.60;59.40;;;;;;5054208;28;19940;-76
2023/05/30 04:15:45;;;;;;;;;;;18.50;59.50;;;;;;5053336;28;19937;-75
2023/05/30 04:18:11;;;;;;;;;;;18.50;59.60;;;;;;5056273;28;19933;-76
2023/05/30 04:20:39;;;;;;;;;;;18.50;59.60;;;;;;5048477;28;19933;-75
2023/05/30 04:23:06;;;;;;;;;;;18.50;59.60;;;;;;5057788;28;19925;-76
2023/05/30 04:25:33;;;;;;;;;;;18.50;59.70;;;;;;5057202;28;19932;-76
2023/05/30 04:27:59;;;;;;;;;;;18.40;59.70;;;;;;5054279;28;19939;-76
2023/05/30 04:30:28;;;;;;;;;;;18.40;59.80;;;;;;5058851;28;19955;-76
2023/05/30 04:32:55;;;;;;;;;;;18.40;59.80;;;;;;5065644;28;20501;-75
2023/05/30 04:35:22;;;;;;;;;;;18.40;59.90;;;;;;5062491;28;19933;-75
2023/05/30 04:37:50;;;;;;;;;;;18.40;60.00;;;;;;5065048;28;20348;-75
2023/05/30 04:40:16;;;;;;;;;;;18.40;60.00;;;;;;5065840;28;19926;-76
2023/05/30 04:42:51;;;;;;;;;;;18.40;60.10;;;;;;5068497;28;20003;-75
2023/05/30 04:45:18;;;;;;;;;;;18.30;60.10;;;;;;5063757;28;19925;-75
2023/05/30 04:47:46;;;;;;;;;;;18.30;60.20;;;;;;5064009;28;19924;-76
2023/05/30 04:50:14;;;;;;;;;;;18.30;60.30;;;;;;5058583;28;20444;-75
2023/05/30 04:52:40;;;;;;;;;;;18.20;60.40;;;;;;5062060;28;19928;-76
2023/05/30 04:55:09;;;;;;;;;;;18.30;60.50;;;;;;5067870;28;19929;-76
2023/05/30 04:57:37;;;;;;;;;;;18.20;60.50;;;;;;5066347;28;19935;-75
2023/05/30 05:00:04;;;;;;;;;;;18.20;60.50;;;;;;5058562;28;19932;-74
2023/05/30 05:02:31;;;;;;;;;;;18.20;60.40;;;;;;5064536;28;20012;-75
2023/05/30 05:04:58;;;;;;;;;;;18.20;60.40;;;;;;5056596;28;19933;-76
2023/05/30 05:07:24;;;;;;;;;;;18.20;60.40;;;;;;5052076;28;19932;-75
2023/05/30 05:09:51;;;;;;;;;;;18.20;60.40;;;;;;5051413;28;19929;-76
2023/05/30 05:12:18;;;;;;;;;;;18.10;60.40;;;;;;5053769;28;20437;-75
2023/05/30 05:14:46;;;;;;;;;;;18.20;60.50;;;;;;5051532;28;19935;-75
2023/05/30 05:17:12;;;;;;;;;;;18.20;60.50;;;;;;5054089;28;20025;-75
2023/05/30 05:19:39;;;;;;;;;;;18.10;60.50;;;;;;5056191;28;20526;-76
2023/05/30 05:22:06;;;;;;;;;;;18.10;60.50;;;;;;5062878;28;19986;-75
2023/05/30 05:24:33;;;;;;;;;;;18.10;60.50;;;;;;5060739;28;19936;-76
2023/05/30 05:26:59;;;;;;;;;;;18.10;60.40;;;;;;5062309;28;19932;-75
2023/05/30 05:29:27;;;;;;;;;;;18.10;60.30;;;;;;5065150;28;19935;-76
2023/05/30 05:31:53;;;;;;;;;;;18.10;60.40;;;;;;5067498;28;19932;-76
2023/05/30 05:34:20;;;;;;;;;;;18.10;60.40;;;;;;5052402;28;20591;-76
2023/05/30 05:36:47;;;;;;;;;;;18.10;60.30;;;;;;5057625;28;20604;-76
2023/05/30 05:39:14;;;;;;;;;;;18.10;60.30;;;;;;5051696;28;19936;-75
2023/05/30 05:41:40;;;;;;;;;;;18.00;60.10;;;;;;5052555;28;20033;-74
2023/05/30 05:44:08;;;;;;;;;;;18.00;60.10;;;;;;5048858;28;21213;-76
2023/05/30 05:46:36;;;;;;;;;;;18.00;60.10;;;;;;5051026;28;19932;-77
2023/05/30 05:49:03;;;;;;;;;;;18.00;60.10;;;;;;5057168;28;19928;-76
2023/05/30 05:51:31;;;;;;;;;;;18.00;60.20;;;;;;5055639;28;19960;-70
2023/05/30 05:53:58;;;;;;;;;;;18.00;60.10;;;;;;5058291;28;20058;-71
2023/05/30 05:56:24;;;;;;;;;;;18.00;60.10;;;;;;5052219;28;19929;-71
2023/05/30 05:58:51;;;;;;;;;;;18.00;60.00;;;;;;5046668;28;20466;-71
2023/05/30 06:01:17;;;;;;;;;;;18.00;60.00;;;;;;5057156;28;19936;-70
2023/05/30 06:03:45;;;;;;;;;;;18.00;60.00;;;;;;5055727;28;19974;-71
2023/05/30 06:06:12;;;;;;;;;;;18.00;59.90;;;;;;5045751;28;19933;-71
2023/05/30 06:08:40;;;;;;;;;;;18.00;60.00;;;;;;5046663;28;19929;-71
2023/05/30 06:11:06;;;;;;;;;;;18.00;59.90;;;;;;5049131;28;20429;-70
2023/05/30 06:13:33;;;;;;;;;;;18.00;59.80;;;;;;5049487;28;20414;-70
2023/05/30 06:16:00;;;;;;;;;;;18.00;59.80;;;;;;5049549;28;19940;-71
2023/05/30 06:18:26;;;;;;;;;;;18.00;59.80;;;;;;5049666;28;19932;-71
2023/05/30 06:20:54;;;;;;;;;;;18.00;59.70;;;;;;5052972;28;19932;-72
2023/05/30 06:23:21;;;;;;;;;;;18.00;59.70;;;;;;5060574;28;20344;-71
2023/05/30 06:25:47;;;;;;;;;;;18.00;59.70;;;;;;5052023;28;19936;-71
2023/05/30 06:28:14;;;;;;;;;;;18.00;59.70;;;;;;5056896;28;19924;-70
2023/05/30 06:30:40;;;;;;;;;;;18.10;59.70;;;;;;5056901;28;19932;-71
2023/05/30 06:33:07;;;;;;;;;;;18.00;59.60;;;;;;5060815;28;19939;-75
2023/05/30 06:35:33;;;;;;;;;;;18.10;59.70;;;;;;5046028;28;19925;-74
2023/05/30 06:38:01;;;;;;;;;;;18.10;59.60;;;;;;5055152;28;19924;-75
2023/05/30 06:40:28;;;;;;;;;;;18.10;59.60;;;;;;5052542;28;20279;-75
2023/05/30 06:42:54;;;;;;;;;;;18.10;59.60;;;;;;5057731;28;20527;-75
2023/05/30 06:45:21;;;;;;;;;;;18.10;59.60;;;;;;5044921;28;20533;-75
2023/05/30 06:47:48;;;;;;;;;;;18.10;60.20;;;;;;5054249;28;19938;-75
2023/05/30 06:50:14;;;;;;;;;;;18.10;59.60;;;;;;5048660;28;19951;-75
2023/05/30 06:52:41;;;;;;;;;;;18.10;59.50;;;;;;5052391;28;20325;-75
2023/05/30 06:55:09;;;;;;;;;;;18.10;59.50;;;;;;5044909;28;19932;-75
2023/05/30 06:57:36;;;;;;;;;;;18.10;59.50;;;;;;5056102;28;19928;-75
2023/05/30 07:00:03;;;;;;;;;;;18.10;59.50;;;;;;5054282;28;19928;-73
2023/05/30 07:02:30;;;;;;;;;;;18.10;59.50;;;;;;5047777;28;20635;-75
2023/05/30 07:04:56;;;;;;;;;;;18.10;59.50;;;;;;5047250;28;20417;-75
2023/05/30 07:07:23;;;;;;;;;;;18.20;59.50;;;;;;5043619;28;20394;-76
2023/05/30 07:09:50;;;;;;;;;;;18.10;59.40;;;;;;5038865;28;19933;-76
2023/05/30 07:12:17;;;;;;;;;;;18.20;59.50;;;;;;5049450;28;20553;-78
2023/05/30 07:14:44;;;;;;;;;;;18.20;59.50;;;;;;5046923;28;19936;-77
2023/05/30 07:17:11;;;;;;;;;;;18.20;59.50;;;;;;5054352;28;20480;-78
2023/05/30 07:19:37;;;;;;;;;;;18.20;59.50;;;;;;5054103;28;19936;-76
2023/05/30 07:22:04;;;;;;;;;;;18.20;59.40;;;;;;5053583;28;19929;-77
2023/05/30 07:24:31;;;;;;;;;;;18.30;59.30;;;;;;5058168;28;19932;-77
2023/05/30 07:26:57;;;;;;;;;;;18.30;59.20;;;;;;5054979;28;19967;-77
2023/05/30 07:29:26;;;;;;;;;;;18.30;59.00;;;;;;5053740;28;19958;-76
2023/05/30 07:31:52;;;;;;;;;;;18.30;58.80;;;;;;5053986;28;20277;-77
2023/05/30 07:34:19;;;;;;;;;;;18.40;58.60;;;;;;5052484;28;20528;-76
2023/05/30 07:36:45;;;;;;;;;;;18.40;58.40;;;;;;5051043;28;19925;-76
2023/05/30 07:39:12;;;;;;;;;;;18.40;58.20;;;;;;5053440;28;19939;-77
2023/05/30 07:41:39;;;;;;;;;;;18.40;58.10;;;;;;5057088;28;19928;-77
2023/05/30 07:44:06;;;;;;;;;;;18.40;57.90;;;;;;5053557;28;19928;-77
2023/05/30 07:46:34;;;;;;;;;;;18.40;57.70;;;;;;5054651;28;19936;-77
2023/05/30 07:49:00;;;;;;;;;;;18.40;57.50;;;;;;5053676;28;19933;-76
2023/05/30 07:51:27;;;;;;;;;;;18.40;57.40;;;;;;5044418;28;19936;-77
2023/05/30 07:53:53;;;;;;;;;;;18.50;57.50;;;;;;5047108;28;19940;-76
2023/05/30 07:56:20;;;;;;;;;;;18.50;57.30;;;;;;5053348;28;20369;-77
2023/05/30 07:58:47;;;;;;;;;;;18.50;57.20;;;;;;5051577;28;19928;-77
2023/05/30 08:01:14;;;;;;;;;;;18.50;57.00;;;;;;5047395;28;19943;-77
2023/05/30 08:03:41;;;;;;;;;;;18.60;56.90;;;;;;5052346;28;19928;-77
2023/05/30 08:06:08;;;;;;;;;;;18.60;56.90;;;;;;5048717;28;19928;-77
2023/05/30 08:08:35;;;;;;;;;;;18.60;56.80;;;;;;5049728;28;19937;-77
2023/05/30 08:11:01;;;;;;;;;;;18.60;56.60;;;;;;5057685;28;20031;-77
2023/05/30 08:13:28;;;;;;;;;;;18.60;56.60;;;;;;5047857;28;19929;-77
2023/05/30 08:15:54;;;;;;;;;;;18.60;56.60;;;;;;5060588;28;19932;-77
2023/05/30 08:18:22;;;;;;;;;;;18.60;56.50;;;;;;5059279;28;20011;-77
2023/05/30 08:20:51;;;;;;;;;;;18.70;56.50;;;;;;5064292;28;20030;-77
2023/05/30 08:23:17;;;;;;;;;;;18.70;56.30;;;;;;5060537;28;19980;-77
2023/05/30 08:25:45;;;;;;;;;;;18.70;56.20;;;;;;5064739;28;19928;-76
2023/05/30 08:28:12;;;;;;;;;;;18.70;56.10;;;;;;5055475;28;19928;-77
2023/05/30 08:30:40;;;;;;;;;;;18.80;56.20;;;;;;5065804;28;19929;-77
2023/05/30 08:33:07;;;;;;;;;;;18.80;56.10;;;;;;5065424;28;20015;-77
2023/05/30 08:35:34;;;;;;;;;;;18.80;56.00;;;;;;5069041;28;20742;-77
2023/05/30 08:38:02;;;;;;;;;;;18.80;55.90;;;;;;5068246;28;19932;-78
2023/05/30 08:40:29;;;;;;;;;;;18.90;55.90;;;;;;5065067;28;20022;-78
2023/05/30 08:42:55;;;;;;;;;;;18.90;55.90;;;;;;5072080;28;20410;-77
2023/05/30 08:45:22;;;;;;;;;;;18.90;55.80;;;;;;5064893;28;19982;-77
2023/05/30 08:47:52;;;;;;;;;;;19.00;55.80;;;;;;5061553;28;19995;-77
2023/05/30 08:50:20;;;;;;;;;;;19.00;55.70;;;;;;5065168;28;19928;-77
2023/05/30 08:52:51;;;;;;;;;;;19.00;55.50;;;;;;5059227;28;20015;-78
2023/05/30 08:55:22;;;;;;;;;;;19.00;55.30;;;;;;5072314;28;19952;-77
2023/05/30 08:57:50;;;;;;;;;;;19.10;55.30;;;;;;5059711;28;19928;-77
2023/05/30 09:00:18;;;;;;;;;;;19.10;55.30;;;;;;5048772;28;20019;-77
2023/05/30 09:02:44;;;;;;;;;;;19.10;55.30;;;;;;5057160;28;19939;-77
2023/05/30 09:05:14;;;;;;;;;;;19.20;55.30;;;;;;5054347;28;19939;-76
2023/05/30 09:07:41;;;;;;;;;;;19.20;55.20;;;;;;5059333;28;19956;-76
2023/05/30 09:10:08;;;;;;;;;;;19.20;55.20;;;;;;5060111;28;20167;-77
2023/05/30 09:12:36;;;;;;;;;;;19.30;55.00;;;;;;5061309;28;21107;-77
2023/05/30 09:15:03;;;;;;;;;;;19.30;55.00;;;;;;5060767;28;20018;-77
2023/05/30 09:17:29;;;;;;;;;;;19.30;55.10;;;;;;5060920;28;20757;-78
2023/05/30 09:19:56;;;;;;;;;;;19.40;55.00;;;;;;5060624;28;19929;-77
2023/05/30 09:22:23;;;;;;;;;;;19.40;54.80;;;;;;5055040;28;20548;-75
2023/05/30 09:24:59;;;;;;;;;;;19.40;54.70;;;;;;5054468;28;19935;-76
2023/05/30 09:27:27;;;;;;;;;;;19.50;54.70;;;;;;5060485;28;20035;-76
2023/05/30 09:29:55;;;;;;;;;;;19.50;54.60;;;;;;5054407;28;20461;-75
2023/05/30 09:32:28;;;;;;;;;;;19.60;54.60;;;;;;5056960;28;20013;-75
2023/05/30 09:34:56;;;;;;;;;;;19.70;54.40;;;;;;5055475;28;20383;-76
2023/05/30 09:37:23;;;;;;;;;;;19.60;54.30;;;;;;5054573;28;20318;-76
2023/05/30 09:40:09;;;;;;;;;;;19.80;54.40;;;;;;5052325;28;19928;-76
2023/05/30 09:42:40;;;;;;;;;;;19.80;53.80;;;;;;5054276;28;20608;-76
2023/05/30 09:45:09;;;;;;;;;;;19.90;53.90;;;;;;5048311;28;20019;-75
2023/05/30 09:47:42;;;;;;;;;;;19.90;54.00;;;;;;5055055;28;20379;-75
2023/05/30 09:50:11;;;;;;;;;;;20.00;53.90;;;;;;5052225;28;19939;-76
2023/05/30 09:52:37;;;;;;;;;;;20.10;53.80;;;;;;5052738;28;19929;-75
2023/05/30 09:55:05;;;;;;;;;;;20.10;53.70;;;;;;5056153;28;19936;-76
2023/05/30 09:57:35;;;;;;;;;;;20.20;53.60;;;;;;5058142;28;20823;-76
2023/05/30 10:00:06;;;;;;;;;;;20.20;53.50;;;;;;5053966;28;20105;-76
2023/05/30 10:02:34;;;;;;;;;;;20.40;53.50;;;;;;5054383;28;19929;-76
2023/05/30 10:05:01;;;;;;;;;;;20.40;53.30;;;;;;5051893;28;19940;-76
2023/05/30 10:07:28;;;;;;;;;;;20.40;53.30;;;;;;5054289;28;19928;-76
2023/05/30 10:09:57;;;;;;;;;;;20.50;53.10;;;;;;5056440;28;19943;-76
2023/05/30 10:12:24;;;;;;;;;;;20.60;53.20;;;;;;5052911;28;19937;-76
2023/05/30 10:14:50;;;;;;;;;;;20.70;53.10;;;;;;5048909;28;19933;-74
2023/05/30 10:17:19;;;;;;;;;;;20.70;52.90;;;;;;5045159;28;20425;-76
2023/05/30 10:19:49;;;;;;;;;;;20.80;53.60;;;;;;5052847;28;19935;-74
2023/05/30 10:22:16;;;;;;;;;;;20.90;53.00;;;;;;5054591;28;20322;-76
2023/05/30 10:24:43;;;;;;;;;;;21.00;52.90;;;;;;5058084;28;19991;-76
2023/05/30 10:27:11;;;;;;;;;;;21.00;52.70;;;;;;5051627;28;19929;-76
2023/05/30 10:29:53;;;;;;;;;;;21.10;52.50;;;;;;5056744;28;19936;-76
2023/05/30 10:32:21;;;;;;;;;;;21.20;52.30;;;;;;5049229;28;19929;-75
2023/05/30 10:34:54;;;;;;;;;;;21.20;52.20;;;;;;5051525;28;20318;-76
2023/05/30 10:37:21;;;;;;;;;;;21.30;52.10;;;;;;5050619;28;19932;-76
2023/05/30 10:39:53;;;;;;;;;;;21.40;52.20;;;;;;5056412;28;19928;-76
2023/05/30 10:42:22;;;;;;;;;;;21.50;52.40;;;;;;5055393;28;20023;-76
2023/05/30 10:44:54;;;;;;;;;;;21.50;52.00;;;;;;5056389;28;19937;-76
2023/05/30 10:47:27;;;;;;;;;;;21.60;51.60;;;;;;5051846;28;19929;-76
2023/05/30 10:49:57;;;;;;;;;;;21.60;51.40;;;;;;5050152;28;20078;-76
2023/05/30 10:52:30;;;;;;;;;;;21.70;51.10;;;;;;5051317;28;19925;-75
2023/05/30 10:54:56;;;;;;;;;;;21.80;51.20;;;;;;5052398;28;19924;-76
2023/05/30 10:57:25;;;;;;;;;;;21.90;51.10;;;;;;5045427;28;19932;-76
2023/05/30 10:59:54;;;;;;;;;;;21.90;51.00;;;;;;5045902;28;20213;-76
2023/05/30 11:02:31;;;;;;;;;;;22.00;50.90;;;;;;5048631;28;20406;-76
2023/05/30 11:05:03;;;;;;;;;;;22.00;50.80;;;;;;5046462;28;20439;-76
2023/05/30 11:07:33;;;;;;;;;;;22.10;50.40;;;;;;5050234;28;19935;-76
2023/05/30 11:10:04;;;;;;;;;;;22.20;50.00;;;;;;5049052;28;19936;-76
2023/05/30 11:12:31;;;;;;;;;;;22.20;50.10;;;;;;5049086;28;19929;-75
2023/05/30 11:14:58;;;;;;;;;;;22.30;49.60;;;;;;5048163;28;19928;-75
2023/05/30 11:17:32;;;;;;;;;;;22.30;50.00;;;;;;5049193;28;19935;-76
2023/05/30 11:20:14;;;;;;;;;;;22.40;49.90;;;;;;5037508;28;19925;-76
2023/05/30 11:22:45;;;;;;;;;;;22.40;49.40;;;;;;5047893;28;19924;-76
2023/05/30 11:25:22;;;;;;;;;;;22.60;49.40;;;;;;5047298;28;19932;-75
2023/05/30 11:28:12;;;;;;;;;;;22.60;48.90;;;;;;5049326;28;20007;-76
2023/05/30 11:30:43;;;;;;;;;;;22.70;49.10;;;;;;5056425;28;19929;-76
2023/05/30 11:33:10;;;;;;;;;;;22.70;48.90;;;;;;5053192;28;19935;-76
2023/05/30 11:35:38;;;;;;;;;;;22.80;49.10;;;;;;5047596;28;19929;-75
2023/05/30 11:38:06;;;;;;;;;;;22.80;48.70;;;;;;5048490;28;19936;-76
2023/05/30 11:40:32;;;;;;;;;;;22.90;48.40;;;;;;5057857;28;19986;-76
2023/05/30 11:42:59;;;;;;;;;;;23.00;48.30;;;;;;5051970;28;20536;-75
2023/05/30 11:45:26;;;;;;;;;;;23.00;48.30;;;;;;5052078;28;20015;-76
2023/05/30 11:47:52;;;;;;;;;;;23.10;48.10;;;;;;5052370;28;19940;-76
2023/05/30 11:50:19;;;;;;;;;;;23.10;47.80;;;;;;5047659;28;19932;-76
2023/05/30 11:52:47;;;;;;;;;;;23.20;47.50;;;;;;5050159;28;19928;-76
2023/05/30 11:55:14;;;;;;;;;;;23.20;47.40;;;;;;5049649;28;20824;-76
2023/05/30 11:57:40;;;;;;;;;;;23.30;47.40;;;;;;5046941;28;19928;-76
2023/05/30 12:00:11;;;;;;;;;;;23.30;47.60;;;;;;5048283;28;19929;-76
2023/05/30 12:02:38;;;;;;;;;;;23.30;47.30;;;;;;5050915;28;19935;-75
2023/05/30 12:05:05;;;;;;;;;;;23.40;47.50;;;;;;5053007;28;19950;-76
2023/05/30 12:07:32;;;;;;;;;;;23.50;47.40;;;;;;5053990;28;19936;-76
2023/05/30 12:10:00;;;;;;;;;;;23.50;47.40;;;;;;5049353;28;20131;-76
2023/05/30 12:12:27;;;;;;;;;;;23.60;47.00;;;;;;5047554;28;19929;-75
2023/05/30 12:15:04;;;;;;;;;;;23.60;46.90;;;;;;5047140;28;20018;-76
2023/05/30 12:17:30;;;;;;;;;;;23.70;46.80;;;;;;5047390;28;20460;-76
2023/05/30 12:19:59;;;;;;;;;;;23.70;46.40;;;;;;5046810;28;19933;-76
2023/05/30 12:22:25;;;;;;;;;;;23.80;46.80;;;;;;5048444;28;19924;-76
2023/05/30 12:24:52;;;;;;;;;;;23.90;46.40;;;;;;5053103;28;19928;-75
2023/05/30 12:27:21;;;;;;;;;;;23.90;46.30;;;;;;5053389;28;19925;-76
2023/05/30 12:29:48;;;;;;;;;;;24.00;46.40;;;;;;5051787;28;19935;-75
2023/05/30 12:32:14;;;;;;;;;;;24.10;45.60;;;;;;5050967;28;19982;-76
2023/05/30 12:34:42;;;;;;;;;;;24.10;45.60;;;;;;5048608;28;20515;-76
2023/05/30 12:37:11;;;;;;;;;;;24.20;45.50;;;;;;5051460;28;19928;-75
2023/05/30 12:39:44;;;;;;;;;;;24.20;45.30;;;;;;5055340;28;20417;-76
2023/05/30 12:42:11;;;;;;;;;;;24.30;44.70;;;;;;5050359;28;19936;-76
2023/05/30 12:44:46;;;;;;;;;;;24.30;44.80;;;;;;5055593;28;19967;-76
2023/05/30 12:47:13;;;;;;;;;;;24.30;45.00;;;;;;5033430;28;20039;-76
2023/05/30 12:49:40;;;;;;;;;;;24.40;44.70;;;;;;5033874;28;19929;-76
2023/05/30 12:52:07;;;;;;;;;;;24.50;44.60;;;;;;5039184;28;19929;-76
2023/05/30 12:54:34;;;;;;;;;;;24.50;44.20;;;;;;5034049;28;19928;-76
2023/05/30 12:57:01;;;;;;;;;;;24.50;44.40;;;;;;5039161;28;19933;-77
2023/05/30 12:59:27;;;;;;;;;;;24.60;44.20;;;;;;5037435;28;19941;-76
2023/05/30 13:01:55;;;;;;;;;;;24.70;44.10;;;;;;5035709;28;19929;-76
2023/05/30 13:04:22;;;;;;;;;;;24.70;44.00;;;;;;5036285;28;19932;-76
2023/05/30 13:06:48;;;;;;;;;;;24.70;44.70;;;;;;5032119;28;19929;-76
2023/05/30 13:09:16;;;;;;;;;;;24.80;44.70;;;;;;5037859;28;19933;-76
2023/05/30 13:11:43;;;;;;;;;;;24.80;44.30;;;;;;5037309;28;19999;-75
2023/05/30 13:14:09;;;;;;;;;;;24.90;44.00;;;;;;5040066;28;19939;-76
2023/05/30 13:16:36;;;;;;;;;;;24.90;44.00;;;;;;5048516;28;19935;-76
2023/05/30 13:19:04;;;;;;;;;;;25.00;44.10;;;;;;5052511;28;20413;-76
2023/05/30 13:21:30;;;;;;;;;;;25.00;43.70;;;;;;5057451;28;19971;-77
2023/05/30 13:23:57;;;;;;;;;;;25.10;43.50;;;;;;5054417;28;19935;-77
2023/05/30 13:26:23;;;;;;;;;;;25.10;43.60;;;;;;5052194;28;20711;-76
2023/05/30 13:28:50;;;;;;;;;;;25.10;43.60;;;;;;5055575;28;19939;-76
2023/05/30 13:31:17;;;;;;;;;;;25.20;43.40;;;;;;5055946;28;19936;-77
2023/05/30 13:33:43;;;;;;;;;;;25.20;42.90;;;;;;5050767;28;19939;-71
2023/05/30 13:36:11;;;;;;;;;;;25.20;43.00;;;;;;5046006;28;20448;-72
2023/05/30 13:38:39;;;;;;;;;;;25.30;43.50;;;;;;5059777;28;20458;-72
2023/05/30 13:41:05;;;;;;;;;;;25.40;44.10;;;;;;5064165;28;19929;-71
2023/05/30 13:43:32;;;;;;;;;;;25.40;43.60;;;;;;5064718;28;19967;-71
2023/05/30 13:45:59;;;;;;;;;;;25.40;43.20;;;;;;5074106;28;19994;-71
2023/05/30 13:48:25;;;;;;;;;;;25.50;43.00;;;;;;5071165;28;19978;-72
2023/05/30 13:50:52;;;;;;;;;;;25.50;42.70;;;;;;5059827;28;19974;-71
2023/05/30 13:53:20;;;;;;;;;;;25.60;43.60;;;;;;5061168;28;19935;-71
2023/05/30 13:55:47;;;;;;;;;;;25.60;42.80;;;;;;5063601;28;20417;-71
2023/05/30 13:58:13;;;;;;;;;;;25.60;42.60;;;;;;5064799;28;19935;-71
2023/05/30 14:00:40;;;;;;;;;;;25.70;42.80;;;;;;5063701;28;19935;-72
2023/05/30 14:03:06;;;;;;;;;;;25.70;42.70;;;;;;5071202;28;19935;-71
2023/05/30 14:05:34;;;;;;;;;;;25.80;42.10;;;;;;5065420;28;19932;-71
2023/05/30 14:08:01;;;;;;;;;;;25.90;42.00;;;;;;5063726;28;19935;-71
2023/05/30 14:10:29;;;;;;;;;;;25.90;42.00;;;;;;5067318;28;19935;-71
2023/05/30 14:12:56;;;;;;;;;;;25.90;41.90;;;;;;5065878;28;19951;-72
2023/05/30 14:15:22;;;;;;;;;;;26.00;41.30;;;;;;5055731;28;19986;-72
2023/05/30 14:17:49;;;;;;;;;;;26.10;41.30;;;;;;5055041;28;19928;-72
2023/05/30 14:20:16;;;;;;;;;;;26.10;41.10;;;;;;5061305;28;19935;-72